Time;durP1;ratioP1;P1;durP2;ratioP2;P2;SDS_P1;SDS_P2;PMS_P1;PMS_P2;Temp;Humidity;BMP_temperature;BMP_pressure;BME280_temperature;BME280_humidity;BME280_pressure;Samples;Min_cycle;Max_cycle;Signal;HPM_P1;HPM_P2
2022/09/19 00:01:34;;;;;;;1.98;1.38;;;14.90;96.10;;;;;;6154652;23;20386;-77
2022/09/19 00:04:05;;;;;;;1.25;1.20;;;15.00;96.30;;;;;;6154741;23;20028;-77
2022/09/19 00:06:35;;;;;;;2.22;1.10;;;15.00;96.20;;;;;;6154731;23;20427;-77
2022/09/19 00:09:02;;;;;;;1.38;1.10;;;15.00;96.40;;;;;;6152862;23;20012;-77
2022/09/19 00:11:28;;;;;;;1.10;0.98;;;14.90;96.70;;;;;;6154659;23;20002;-77
2022/09/19 00:13:56;;;;;;;2.20;1.20;;;14.80;96.80;;;;;;6154666;23;20013;-77
2022/09/19 00:16:27;;;;;;;1.70;1.17;;;14.90;96.60;;;;;;6154544;23;20060;-77
2022/09/19 00:18:55;;;;;;;1.13;1.10;;;14.90;96.50;;;;;;6152641;23;20378;-77
2022/09/19 00:21:42;;;;;;;3.08;1.48;;;14.90;96.80;;;;;;6152893;23;20128;-77
2022/09/19 00:26:58;;;;;;;2.38;1.25;;;14.90;96.60;;;;;;6154192;23;20064;-77
2022/09/19 00:29:24;;;;;;;2.03;1.40;;;14.80;96.80;;;;;;6154415;23;20076;-77
2022/09/19 00:31:52;;;;;;;1.42;1.30;;;14.80;96.50;;;;;;6154539;23;20437;-77
2022/09/19 00:34:18;;;;;;;4.00;1.33;;;14.80;96.90;;;;;;6154402;23;20006;-77
2022/09/19 00:36:45;;;;;;;1.35;1.20;;;14.80;97.50;;;;;;6154244;23;20001;-77
2022/09/19 00:39:13;;;;;;;2.38;1.30;;;14.80;97.10;;;;;;6152669;23;20501;-77
2022/09/19 00:41:41;;;;;;;0.85;0.85;;;14.80;97.10;;;;;;6152835;23;20430;-78
2022/09/19 00:44:27;;;;;;;4.03;1.33;;;14.80;96.90;;;;;;6152686;23;20009;-77
2022/09/19 00:47:05;;;;;;;1.08;1.05;;;14.80;97.20;;;;;;6143411;23;20017;-77
2022/09/19 00:49:37;;;;;;;1.70;1.58;;;14.70;97.40;;;;;;6154279;23;20059;-77
2022/09/19 00:52:07;;;;;;;2.90;1.02;;;14.60;98.00;;;;;;6154195;23;20012;-77
2022/09/19 00:54:44;;;;;;;1.33;1.00;;;14.60;98.20;;;;;;6154061;23;20550;-77
2022/09/19 00:57:13;;;;;;;1.42;1.33;;;14.60;98.80;;;;;;6154057;23;20407;-77
2022/09/19 00:59:43;;;;;;;3.05;1.35;;;14.50;98.90;;;;;;6153708;23;20001;-77
2022/09/19 01:02:10;;;;;;;6.97;1.60;;;14.50;99.00;;;;;;6154057;23;20005;-77
2022/09/19 01:04:36;;;;;;;1.27;1.20;;;14.40;99.10;;;;;;6152354;23;20036;-77
2022/09/19 01:07:08;;;;;;;1.33;1.10;;;14.40;99.40;;;;;;6154064;23;20020;-77
2022/09/19 01:09:36;;;;;;;1.75;1.63;;;14.40;99.90;;;;;;6152347;23;20009;-77
2022/09/19 01:12:23;;;;;;;3.63;1.23;;;14.40;99.90;;;;;;6153958;23;20025;-77
2022/09/19 01:15:24;;;;;;;5.15;1.35;;;14.30;99.90;;;;;;6152264;23;20434;-77
2022/09/19 01:17:59;;;;;;;1.10;1.10;;;14.30;99.90;;;;;;6143061;23;20009;-77
2022/09/19 01:20:53;;;;;;;1.27;1.17;;;14.20;99.90;;;;;;6152345;23;20014;-77
2022/09/19 01:23:27;;;;;;;1.75;1.23;;;14.30;99.90;;;;;;6152368;23;20322;-77
2022/09/19 01:26:03;;;;;;;1.45;1.35;;;14.30;99.90;;;;;;6154051;23;20061;-77
2022/09/19 01:28:41;;;;;;;2.67;1.10;;;14.30;99.90;;;;;;6152159;23;19998;-77
2022/09/19 01:31:20;;;;;;;2.28;1.20;;;14.20;99.90;;;;;;6152258;23;20051;-77
2022/09/19 01:34:20;;;;;;;1.38;1.30;;;14.20;99.90;;;;;;6152509;23;20434;-76
2022/09/19 01:37:07;;;;;;;1.05;0.95;;;14.20;99.90;;;;;;6152231;23;20006;-77
2022/09/19 01:39:38;;;;;;;2.88;1.38;;;14.20;99.90;;;;;;6152172;23;20342;-77
2022/09/19 01:42:04;;;;;;;1.50;1.17;;;14.20;99.90;;;;;;6153895;23;20005;-77
2022/09/19 01:44:32;;;;;;;2.83;1.50;;;14.30;99.90;;;;;;6152084;23;20489;-77
2022/09/19 01:47:24;;;;;;;1.27;1.17;;;14.40;99.90;;;;;;6152222;23;20084;-77
2022/09/19 01:50:01;;;;;;;3.42;1.10;;;14.30;99.90;;;;;;6153851;23;20236;-77
2022/09/19 01:52:49;;;;;;;1.25;1.10;;;14.30;99.90;;;;;;6153870;23;20052;-77
2022/09/19 01:55:20;;;;;;;3.65;1.35;;;14.30;99.90;;;;;;6153491;23;20017;-77
2022/09/19 01:58:04;;;;;;;5.07;1.27;;;14.20;99.90;;;;;;6152060;23;20014;-77
2022/09/19 02:00:31;;;;;;;1.10;1.00;;;14.20;99.90;;;;;;6152293;23;20029;-77
2022/09/19 02:03:22;;;;;;;1.13;1.02;;;14.20;99.90;;;;;;6153819;23;20422;-77
2022/09/19 02:05:50;;;;;;;0.93;0.93;;;14.20;99.90;;;;;;6153633;23;19997;-77
2022/09/19 02:08:31;;;;;;;2.25;1.08;;;14.10;99.90;;;;;;6152013;23;20461;-77
2022/09/19 02:11:18;;;;;;;1.30;1.20;;;14.10;99.90;;;;;;6151922;23;20012;-77
2022/09/19 02:13:51;;;;;;;1.35;1.25;;;14.10;99.90;;;;;;6153503;23;20032;-77
2022/09/19 02:16:51;;;;;;;1.08;1.02;;;14.10;99.90;;;;;;6152020;23;20009;-77
2022/09/19 02:19:30;;;;;;;1.05;0.95;;;14.10;99.90;;;;;;6160314;23;20032;-77
2022/09/19 02:22:04;;;;;;;1.35;1.25;;;14.10;99.90;;;;;;6152191;23;20002;-77
2022/09/19 02:24:33;;;;;;;0.82;0.82;;;14.10;99.90;;;;;;6153465;23;20072;-77
2022/09/19 02:27:11;;;;;;;3.03;1.15;;;14.00;99.90;;;;;;6151986;23;20006;-77
2022/09/19 02:29:43;;;;;;;1.50;0.90;;;14.00;99.90;;;;;;6153532;23;20002;-77
2022/09/19 02:32:09;;;;;;;1.02;1.00;;;14.00;99.90;;;;;;6153699;23;20068;-77
2022/09/19 02:34:36;;;;;;;1.05;0.95;;;14.00;99.90;;;;;;6153399;23;20006;-77
2022/09/19 02:37:07;;;;;;;0.98;0.90;;;13.90;99.90;;;;;;6152050;23;20476;-77
2022/09/19 02:40:10;;;;;;;1.17;1.08;;;13.90;99.90;;;;;;6151947;23;20012;-77
2022/09/19 02:43:07;;;;;;;1.33;1.23;;;13.90;99.90;;;;;;6153477;23;20006;-77
2022/09/19 02:45:40;;;;;;;2.90;1.40;;;13.90;99.90;;;;;;6152044;23;20006;-77
2022/09/19 02:48:41;;;;;;;2.30;1.00;;;14.00;99.90;;;;;;6153419;23;20062;-77
2022/09/19 02:51:16;;;;;;;1.40;1.30;;;13.90;99.90;;;;;;6155161;23;20012;-77
2022/09/19 02:53:52;;;;;;;1.25;1.02;;;13.90;99.90;;;;;;6153613;23;20010;-77
2022/09/19 02:56:27;;;;;;;1.85;0.88;;;13.90;99.90;;;;;;6153272;23;20049;-77
2022/09/19 02:59:20;;;;;;;3.33;1.02;;;13.90;99.90;;;;;;6153464;23;20060;-77
2022/09/19 03:01:51;;;;;;;2.78;1.02;;;13.90;99.90;;;;;;6153632;23;20005;-77
2022/09/19 03:04:23;;;;;;;0.70;0.67;;;13.90;99.90;;;;;;6155226;23;19998;-77
2022/09/19 03:06:48;;;;;;;;;;;13.90;99.90;;;;;;6155635;23;20006;-77
2022/09/19 03:09:18;;;;;;;1.13;1.02;;;13.90;99.90;;;;;;6153260;23;19901;-77
2022/09/19 03:11:51;;;;;;;0.93;0.93;;;13.80;99.90;;;;;;6153679;23;20001;-77
2022/09/19 03:14:17;;;;;;;1.23;1.13;;;13.80;99.90;;;;;;6155267;23;20012;-78
2022/09/19 03:16:47;;;;;;;1.63;1.25;;;13.90;99.90;;;;;;6155217;23;20487;-77
2022/09/19 03:19:13;;;;;;;1.17;0.82;;;13.80;99.90;;;;;;6155005;23;19997;-77
2022/09/19 03:21:41;;;;;;;0.82;0.70;;;13.80;99.90;;;;;;6153625;23;20040;-77
2022/09/19 03:24:08;;;;;;;1.60;1.23;;;13.80;99.90;;;;;;6155080;23;20004;-77
2022/09/19 03:26:36;;;;;;;1.35;1.10;;;13.90;99.90;;;;;;6153455;23;20319;-77
2022/09/19 03:29:08;;;;;;;0.95;0.95;;;13.90;99.90;;;;;;6153358;23;20009;-77
2022/09/19 03:31:34;;;;;;;;;;;13.90;99.90;;;;;;6155438;23;20002;-77
2022/09/19 03:33:59;;;;;;;1.10;1.10;;;13.90;99.90;;;;;;6153367;23;20329;-77
2022/09/19 03:36:26;;;;;;;2.13;1.10;;;13.90;99.90;;;;;;6154764;23;20418;-77
2022/09/19 03:38:52;;;;;;;1.30;1.00;;;13.90;99.90;;;;;;6154764;23;20001;-77
2022/09/19 03:41:20;;;;;;;1.88;1.20;;;13.70;99.90;;;;;;6154862;23;20001;-77
2022/09/19 03:43:46;;;;;;;2.88;1.10;;;13.80;99.90;;;;;;6154940;23;20076;-77
2022/09/19 03:46:16;;;;;;;1.40;1.30;;;13.80;99.90;;;;;;6154763;23;20029;-77
2022/09/19 03:48:45;;;;;;;1.98;1.00;;;13.80;99.90;;;;;;6154811;23;20012;-77
2022/09/19 03:51:12;;;;;;;1.70;1.00;;;13.90;99.90;;;;;;6154642;23;20013;-77
2022/09/19 03:53:37;;;;;;;1.05;0.88;;;13.90;99.90;;;;;;6154679;23;20088;-77
2022/09/19 03:56:04;;;;;;;1.10;1.00;;;13.90;99.90;;;;;;6152783;23;20481;-77
2022/09/19 03:58:30;;;;;;;1.00;0.98;;;13.80;99.90;;;;;;6154741;23;20056;-78
2022/09/19 04:00:59;;;;;;;1.45;1.10;;;13.80;99.90;;;;;;6154165;23;20073;-77
2022/09/19 04:03:25;;;;;;;1.10;1.00;;;13.90;99.90;;;;;;6153092;23;20426;-77
2022/09/19 04:05:51;;;;;;;1.05;0.95;;;13.90;99.90;;;;;;6154714;23;20033;-77
2022/09/19 04:08:18;;;;;;;1.38;0.98;;;13.90;99.90;;;;;;6154494;23;20001;-77
2022/09/19 04:10:43;;;;;;;1.60;1.25;;;13.90;99.90;;;;;;6154575;23;20002;-77
2022/09/19 04:13:10;;;;;;;0.90;0.90;;;13.80;99.90;;;;;;6154532;23;20012;-77
2022/09/19 04:15:36;;;;;;;1.17;1.08;;;13.80;99.90;;;;;;6152773;23;20005;-77
2022/09/19 04:18:05;;;;;;;1.10;1.10;;;13.80;99.90;;;;;;6152893;23;20128;-77
2022/09/19 04:20:32;;;;;;;1.17;0.98;;;13.90;99.90;;;;;;6152921;23;20005;-77
2022/09/19 04:23:00;;;;;;;1.48;0.95;;;13.90;99.90;;;;;;6177282;23;20012;-77
2022/09/19 04:25:34;;;;;;;2.13;0.93;;;14.00;99.90;;;;;;6152821;23;20005;-77
2022/09/19 04:28:04;;;;;;;0.98;0.95;;;14.00;99.90;;;;;;6154316;23;20009;-77
2022/09/19 04:30:31;;;;;;;1.13;1.00;;;14.00;99.90;;;;;;6152749;23;20013;-77
2022/09/19 04:32:58;;;;;;;1.00;1.00;;;13.90;99.90;;;;;;6152698;23;20012;-77
2022/09/19 04:35:24;;;;;;;1.30;0.88;;;14.00;99.90;;;;;;6154253;23;20004;-77
2022/09/19 04:37:49;;;;;;;1.35;1.15;;;14.00;99.90;;;;;;6153381;23;19998;-77
2022/09/19 04:40:15;;;;;;;1.10;1.00;;;14.00;99.90;;;;;;6154581;23;20003;-77
2022/09/19 04:42:41;;;;;;;1.70;1.30;;;13.90;99.90;;;;;;6152110;23;20012;-77
2022/09/19 04:45:08;;;;;;;1.95;0.82;;;13.80;99.90;;;;;;6177306;23;20056;-77
2022/09/19 04:47:38;;;;;;;1.35;1.02;;;13.80;99.90;;;;;;6153876;23;20029;-77
2022/09/19 04:50:08;;;;;;;1.02;1.00;;;13.80;99.90;;;;;;6152314;23;20049;-77
2022/09/19 04:52:34;;;;;;;1.58;1.20;;;13.70;99.90;;;;;;6154148;23;20012;-77
2022/09/19 04:55:00;;;;;;;1.17;1.02;;;13.80;99.90;;;;;;6176895;23;20010;-77
2022/09/19 04:57:27;;;;;;;1.30;0.95;;;13.80;99.90;;;;;;6152557;23;20026;-77
2022/09/19 04:59:55;;;;;;;1.60;1.50;;;13.80;99.90;;;;;;6152620;23;20002;-77
2022/09/19 05:02:21;;;;;;;2.50;1.40;;;13.80;99.90;;;;;;6152684;23;20001;-77
2022/09/19 05:04:46;;;;;;;1.33;1.20;;;13.80;99.90;;;;;;6154162;23;20006;-77
2022/09/19 05:07:13;;;;;;;2.92;1.35;;;13.70;99.90;;;;;;6152736;23;20044;-77
2022/09/19 05:09:42;;;;;;;2.90;1.60;;;13.80;99.90;;;;;;6152379;23;20068;-77
2022/09/19 05:12:09;;;;;;;1.13;1.08;;;13.70;99.90;;;;;;6153719;23;20001;-77
2022/09/19 05:14:38;;;;;;;2.65;1.10;;;13.70;99.90;;;;;;6153379;23;20008;-77
2022/09/19 05:17:04;;;;;;;1.35;1.05;;;13.70;99.90;;;;;;6153499;23;20342;-77
2022/09/19 05:19:33;;;;;;;1.35;1.20;;;13.70;99.90;;;;;;6153631;23;19993;-77
2022/09/19 05:21:58;;;;;;;1.27;1.17;;;13.80;99.90;;;;;;6151882;23;20002;-77
2022/09/19 05:24:24;;;;;;;1.42;1.33;;;13.80;99.90;;;;;;6152404;23;20041;-81
2022/09/19 05:26:50;;;;;;;1.52;1.42;;;13.80;99.90;;;;;;6151997;23;20033;-81
2022/09/19 05:29:17;;;;;;;1.70;1.00;;;13.80;99.90;;;;;;6152356;23;20025;-82
2022/09/19 05:31:45;;;;;;;3.60;1.13;;;13.70;99.90;;;;;;6154097;23;20005;-81
2022/09/19 05:34:13;;;;;;;1.63;1.10;;;13.80;99.90;;;;;;6152589;23;20005;-81
2022/09/19 05:36:39;;;;;;;2.63;1.73;;;13.80;99.90;;;;;;6154060;23;20389;-82
2022/09/19 05:39:06;;;;;;;1.50;1.40;;;13.90;99.90;;;;;;6154116;23;20438;-81
2022/09/19 05:41:32;;;;;;;5.63;1.50;;;13.90;99.90;;;;;;6154275;23;19997;-82
2022/09/19 05:43:58;;;;;;;4.20;0.90;;;13.90;99.90;;;;;;6154091;23;20002;-81
2022/09/19 05:46:24;;;;;;;1.80;1.10;;;14.00;99.90;;;;;;6155352;23;20460;-81
2022/09/19 05:48:50;;;;;;;0.98;0.98;;;14.00;99.90;;;;;;6155439;23;20001;-81
2022/09/19 05:51:15;;;;;;;3.08;1.33;;;14.00;99.90;;;;;;6155542;23;20030;-81
2022/09/19 05:53:55;;;;;;;3.47;1.55;;;14.00;99.90;;;;;;6178893;23;20389;-81
2022/09/19 05:56:22;;;;;;;1.95;1.20;;;14.00;99.90;;;;;;6155381;23;20093;-81
2022/09/19 05:58:52;;;;;;;3.65;1.30;;;14.10;99.90;;;;;;6154066;23;20010;-81
2022/09/19 06:01:17;;;;;;;1.70;1.17;;;14.20;99.90;;;;;;6154014;23;20385;-81
2022/09/19 06:03:44;;;;;;;2.20;1.17;;;14.20;99.90;;;;;;6155624;23;19998;-81
2022/09/19 06:06:13;;;;;;;1.73;1.05;;;14.20;99.90;;;;;;6154097;23;20438;-81
2022/09/19 06:08:42;;;;;;;1.20;1.10;;;14.30;99.90;;;;;;6153854;23;20502;-81
2022/09/19 06:11:09;;;;;;;1.02;0.90;;;14.20;99.90;;;;;;6155633;23;20052;-81
2022/09/19 06:16:19;;;;;;;2.50;1.35;;;14.30;99.90;;;;;;6155438;23;20017;-81
2022/09/19 06:18:45;;;;;;;1.17;1.17;;;14.40;99.90;;;;;;6155681;23;20001;-81
2022/09/19 06:21:12;;;;;;;2.65;1.38;;;14.50;99.90;;;;;;6154074;23;20056;-81
2022/09/19 06:23:38;;;;;;;1.52;1.20;;;14.60;99.90;;;;;;6155445;23;20036;-81
2022/09/19 06:26:04;;;;;;;2.53;1.15;;;14.70;99.90;;;;;;6157654;23;20009;-81
2022/09/19 06:28:30;;;;;;;3.35;1.10;;;14.70;99.90;;;;;;6155795;23;20445;-81
2022/09/19 06:31:03;;;;;;;2.15;1.13;;;14.80;99.90;;;;;;6157376;23;20025;-81
2022/09/19 06:33:32;;;;;;;2.67;1.15;;;15.00;99.90;;;;;;6157501;23;20051;-81
2022/09/19 06:35:59;;;;;;;2.17;1.20;;;15.00;99.90;;;;;;6157173;23;20009;-81
2022/09/19 06:38:26;;;;;;;3.05;1.48;;;15.10;99.90;;;;;;6157485;23;20005;-81
2022/09/19 06:40:51;;;;;;;2.67;1.42;;;15.10;99.90;;;;;;6157281;23;19993;-81
2022/09/19 06:43:17;;;;;;;3.38;1.35;;;15.10;99.90;;;;;;6157182;23;20052;-81
2022/09/19 06:45:43;;;;;;;1.90;0.95;;;15.10;99.90;;;;;;6157252;23;20009;-81
2022/09/19 06:48:10;;;;;;;2.63;1.77;;;15.20;99.90;;;;;;6155627;23;20009;-81
2022/09/19 06:50:36;;;;;;;1.52;1.42;;;15.20;99.90;;;;;;6157127;23;20509;-81
2022/09/19 06:53:02;;;;;;;1.23;1.15;;;15.30;99.90;;;;;;6156132;23;20001;-81
2022/09/19 06:55:29;;;;;;;1.73;1.23;;;15.30;99.90;;;;;;6152472;23;20014;-81
2022/09/19 06:58:03;;;;;;;1.80;1.70;;;15.40;99.90;;;;;;6154817;23;19998;-81
2022/09/19 07:00:33;;;;;;;4.00;2.15;;;15.50;99.90;;;;;;6154720;23;20017;-81
2022/09/19 07:03:10;;;;;;;4.18;2.83;;;15.50;99.90;;;;;;6152914;23;20080;-81
2022/09/19 07:05:38;;;;;;;2.90;2.67;;;15.50;99.90;;;;;;6154775;23;20021;-82
2022/09/19 07:08:04;;;;;;;3.20;2.45;;;15.60;99.90;;;;;;6153966;23;20009;-82
2022/09/19 07:10:30;;;;;;;3.53;3.03;;;15.60;99.90;;;;;;6155594;23;20010;-81
2022/09/19 07:13:01;;;;;;;4.65;3.30;;;15.60;99.90;;;;;;6155628;23;20077;-81
2022/09/19 07:15:28;;;;;;;3.72;3.05;;;15.70;99.90;;;;;;6155449;23;20025;-81
2022/09/19 07:17:55;;;;;;;2.80;2.50;;;15.70;99.90;;;;;;6155137;23;20238;-81
2022/09/19 07:20:22;;;;;;;2.55;2.35;;;15.80;99.90;;;;;;6155549;23;20002;-81
2022/09/19 07:23:01;;;;;;;2.70;2.50;;;15.80;99.90;;;;;;6155528;23;19998;-81
2022/09/19 07:25:28;;;;;;;4.07;2.40;;;15.80;99.90;;;;;;6155376;23;20053;-81
2022/09/19 07:27:58;;;;;;;3.47;3.15;;;15.90;99.90;;;;;;6155477;23;20009;-82
2022/09/19 07:30:24;;;;;;;2.63;2.42;;;15.90;99.90;;;;;;6153707;23;20338;-83
2022/09/19 07:32:53;;;;;;;2.65;2.45;;;15.90;99.90;;;;;;6153747;23;20014;-84
2022/09/19 07:35:18;;;;;;;2.40;2.30;;;16.00;99.90;;;;;;6152530;23;20521;-83
2022/09/19 07:37:49;;;;;;;1.92;1.83;;;16.10;99.90;;;;;;6154172;23;20103;-86
2022/09/19 07:40:15;;;;;;;2.83;2.63;;;16.80;99.90;;;;;;6156475;23;19998;-82
2022/09/19 07:42:41;;;;;;;3.72;2.63;;;16.90;99.90;;;;;;6154878;23;20006;-83
2022/09/19 07:45:07;;;;;;;3.40;3.10;;;16.80;99.90;;;;;;6156449;23;20488;-82
2022/09/19 07:47:32;;;;;;;4.28;3.85;;;16.70;99.90;;;;;;6155544;23;20009;-77
2022/09/19 07:49:58;;;;;;;4.63;3.88;;;16.60;99.90;;;;;;6152020;23;20010;-77
2022/09/19 07:52:24;;;;;;;6.45;3.92;;;16.50;99.90;;;;;;6153343;23;20063;-77
2022/09/19 07:54:50;;;;;;;3.92;3.35;;;16.50;99.90;;;;;;6152261;23;20383;-77
2022/09/19 07:57:17;;;;;;;5.65;3.40;;;16.60;99.90;;;;;;6153689;23;20013;-77
2022/09/19 07:59:44;;;;;;;4.18;3.78;;;16.60;99.90;;;;;;6152608;23;19998;-77
2022/09/19 08:02:11;;;;;;;9.07;3.83;;;16.60;99.90;;;;;;6153729;23;20002;-77
2022/09/19 08:04:37;;;;;;;5.63;4.45;;;16.60;99.90;;;;;;6154342;23;20101;-77
2022/09/19 08:07:04;;;;;;;5.90;3.75;;;16.60;99.90;;;;;;6152421;23;20032;-77
2022/09/19 08:09:30;;;;;;;5.13;4.55;;;16.60;99.90;;;;;;6153953;23;20002;-77
2022/09/19 08:11:57;;;;;;;4.85;4.35;;;16.70;99.90;;;;;;6152469;23;20009;-77
2022/09/19 08:14:23;;;;;;;4.95;4.38;;;16.80;99.90;;;;;;6154483;23;20008;-77
2022/09/19 08:16:50;;;;;;;5.30;4.55;;;16.80;99.90;;;;;;6154371;23;20307;-77
2022/09/19 08:19:16;;;;;;;5.85;4.60;;;16.80;99.90;;;;;;6153018;23;20117;-77
2022/09/19 08:21:42;;;;;;;7.10;4.50;;;16.90;99.90;;;;;;6152927;23;20442;-77
2022/09/19 08:24:08;;;;;;;4.90;4.40;;;16.90;99.90;;;;;;6154386;23;20002;-77
2022/09/19 08:26:33;;;;;;;7.35;4.50;;;17.00;99.90;;;;;;6177628;23;20056;-77
2022/09/19 08:28:59;;;;;;;4.93;4.13;;;17.00;99.90;;;;;;6154284;23;20017;-77
2022/09/19 08:31:25;;;;;;;5.72;5.03;;;17.00;99.90;;;;;;6154316;23;20078;-77
2022/09/19 08:33:51;;;;;;;6.55;4.53;;;17.10;99.90;;;;;;6154392;23;20080;-77
2022/09/19 08:36:17;;;;;;;5.13;4.60;;;17.10;99.90;;;;;;6152569;23;20386;-77
2022/09/19 08:38:43;;;;;;;4.80;4.35;;;17.30;99.90;;;;;;6154249;23;20024;-77
2022/09/19 08:41:30;;;;;;;6.25;4.63;;;17.30;99.90;;;;;;6154193;23;20052;-77
2022/09/19 08:44:24;;;;;;;6.15;5.55;;;17.40;99.90;;;;;;6152884;23;20084;-77
2022/09/19 08:47:01;;;;;;;9.02;4.78;;;17.40;99.90;;;;;;6152275;23;20009;-77
2022/09/19 08:49:38;;;;;;;5.07;4.28;;;17.40;99.90;;;;;;6154042;23;20052;-77
2022/09/19 08:52:26;;;;;;;6.00;4.90;;;17.40;99.90;;;;;;6154491;23;20081;-77
2022/09/19 08:54:53;;;;;;;6.95;4.22;;;17.50;99.90;;;;;;6153886;23;20166;-78
2022/09/19 08:57:26;;;;;;;5.95;4.35;;;17.50;99.90;;;;;;6152309;23;20346;-77
2022/09/19 08:59:54;;;;;;;;;;;17.50;99.90;;;;;;6154800;23;20429;-77
2022/09/19 09:02:36;;;;;;;7.22;4.45;;;17.50;99.90;;;;;;6152609;23;20387;-77
2022/09/19 09:05:02;;;;;;;;;;;17.50;99.90;;;;;;6154623;23;20497;-77
2022/09/19 09:07:32;;;;;;;6.32;4.55;;;17.60;99.90;;;;;;6154067;23;19935;-77
2022/09/19 09:10:21;;;;;;;4.95;4.40;;;17.60;99.90;;;;;;6154359;23;20005;-77
2022/09/19 09:13:24;;;;;;;8.35;5.05;;;17.60;99.90;;;;;;6154057;23;20244;-77
2022/09/19 09:16:09;;;;;;;5.63;4.45;;;17.70;99.90;;;;;;6153923;23;20001;-77
2022/09/19 09:19:02;;;;;;;6.82;4.00;;;17.80;99.90;;;;;;6152421;23;20407;-77
2022/09/19 09:21:31;;;;;;;5.10;4.18;;;17.80;99.90;;;;;;6152456;23;20073;-77
2022/09/19 09:24:05;;;;;;;6.07;4.68;;;17.90;99.90;;;;;;6152356;23;20056;-77
2022/09/19 09:26:40;;;;;;;5.07;4.35;;;17.90;99.90;;;;;;6154176;23;20001;-76
2022/09/19 09:29:17;;;;;;;6.43;4.93;;;17.80;99.90;;;;;;6152322;23;20084;-77
2022/09/19 09:32:09;;;;;;;6.13;4.47;;;17.90;99.90;;;;;;6153964;23;20447;-77
2022/09/19 09:35:00;;;;;;;7.95;4.38;;;18.10;99.90;;;;;;6177111;23;20013;-77
2022/09/19 09:37:41;;;;;;;6.30;4.60;;;18.10;99.90;;;;;;6177003;23;20099;-77
2022/09/19 09:43:26;;;;;;;7.25;4.53;;;18.20;99.90;;;;;;6153992;23;20063;-77
2022/09/19 09:45:52;;;;;;;9.00;4.82;;;18.20;99.90;;;;;;6153995;23;20005;-77
2022/09/19 09:48:30;;;;;;;7.47;5.38;;;18.30;99.90;;;;;;6152057;23;20386;-77
2022/09/19 09:51:28;;;;;;;7.22;4.50;;;18.30;99.90;;;;;;6153756;23;20000;-77
2022/09/19 09:53:54;;;;;;;6.03;4.82;;;18.40;99.90;;;;;;6153844;23;20005;-77
2022/09/19 09:56:29;;;;;;;9.77;5.60;;;18.50;99.90;;;;;;6153437;23;20017;-77
2022/09/19 09:59:01;;;;;;;5.55;4.55;;;18.60;99.90;;;;;;6154650;23;20001;-77
2022/09/19 10:04:39;;;;;;;5.72;4.53;;;18.60;99.90;;;;;;6155889;23;20048;-77
2022/09/19 10:07:23;;;;;;;6.05;5.03;;;18.60;99.90;;;;;;6155801;23;20010;-77
2022/09/19 10:10:00;;;;;;;6.10;4.25;;;18.70;99.90;;;;;;6155786;23;20001;-77
2022/09/19 10:12:40;;;;;;;5.00;4.28;;;18.70;99.90;;;;;;6179043;23;20011;-77
2022/09/19 10:15:13;;;;;;;5.90;4.72;;;18.70;99.90;;;;;;6155756;23;20012;-77
2022/09/19 10:17:46;;;;;;;8.07;4.95;;;18.70;99.90;;;;;;6153917;23;20339;-77
2022/09/19 10:20:31;;;;;;;;;;;18.80;99.90;;;;;;6156197;23;19998;-77
2022/09/19 10:22:57;;;;;;;6.32;4.82;;;18.80;99.90;;;;;;6154062;23;20281;-77
2022/09/19 10:25:26;;;;;;;9.05;5.35;;;18.80;99.90;;;;;;6179008;23;20088;-77
2022/09/19 10:27:53;;;;;;;8.00;5.13;;;19.00;99.90;;;;;;6155605;23;20009;-77
2022/09/19 10:30:29;;;;;;;6.85;4.63;;;19.00;99.90;;;;;;6153885;23;20005;-77
2022/09/19 10:32:55;;;;;;;6.32;4.25;;;19.10;99.90;;;;;;6154055;23;20033;-77
2022/09/19 10:35:28;;;;;;;8.77;5.28;;;19.20;99.90;;;;;;6154999;23;20002;-77
2022/09/19 10:38:12;;;;;;;5.28;4.40;;;19.50;99.90;;;;;;6153828;23;20334;-77
2022/09/19 10:40:59;;;;;;;6.53;5.18;;;19.60;99.90;;;;;;6153894;23;20005;-77
2022/09/19 10:43:32;;;;;;;6.15;4.53;;;19.60;99.90;;;;;;6153778;23;20457;-76
2022/09/19 10:46:05;;;;;;;8.85;4.80;;;19.70;99.90;;;;;;6155445;23;20012;-76
2022/09/19 10:48:34;;;;;;;5.65;4.55;;;19.90;99.90;;;;;;6155535;23;20028;-76
2022/09/19 10:51:04;;;;;;;4.97;4.28;;;19.90;99.90;;;;;;6155599;23;20009;-77
2022/09/19 10:53:32;;;;;;;8.68;4.28;;;20.10;99.90;;;;;;6155419;23;20002;-76
2022/09/19 10:56:09;;;;;;;7.30;4.03;;;20.10;99.90;;;;;;6153401;23;20419;-76
2022/09/19 10:58:41;;;;;;;5.63;4.10;;;20.10;99.90;;;;;;6155424;23;20002;-76
2022/09/19 11:01:23;;;;;;;8.32;5.00;;;20.20;99.90;;;;;;6155318;23;19998;-77
2022/09/19 11:04:22;;;;;;;7.57;5.25;;;20.20;99.90;;;;;;6153511;23;20016;-76
2022/09/19 11:07:02;;;;;;;6.70;4.22;;;20.30;99.90;;;;;;6153553;23;20088;-76
2022/09/19 11:09:36;;;;;;;6.60;4.78;;;20.40;99.90;;;;;;6153471;23;20001;-77
2022/09/19 11:12:09;;;;;;;9.65;4.60;;;20.40;99.90;;;;;;6153629;23;20005;-76
2022/09/19 11:14:46;;;;;;;8.30;4.47;;;20.40;98.80;;;;;;6155161;23;20377;-77
2022/09/19 11:17:33;;;;;;;9.45;4.50;;;20.40;99.00;;;;;;6153511;23;20001;-77
2022/09/19 11:20:14;;;;;;;9.60;4.15;;;20.40;99.40;;;;;;6155395;23;20438;-76
2022/09/19 11:23:13;;;;;;;6.68;3.72;;;20.50;99.90;;;;;;6153603;23;20435;-76
2022/09/19 11:25:39;;;;;;;5.63;3.65;;;20.70;99.50;;;;;;6178408;23;20072;-76
2022/09/19 11:28:26;;;;;;;8.15;3.90;;;20.80;99.30;;;;;;6155257;23;20425;-76
2022/09/19 11:31:29;;;;;;;7.25;3.70;;;20.90;97.20;;;;;;6155392;23;20391;-76
2022/09/19 11:34:04;;;;;;;7.43;3.47;;;20.90;97.30;;;;;;6153317;23;20101;-76
2022/09/19 11:36:44;;;;;;;5.90;3.08;;;21.10;97.70;;;;;;6153349;23;20005;-76
2022/09/19 11:39:34;;;;;;;5.47;3.05;;;21.10;97.70;;;;;;6155075;23;20025;-76
2022/09/19 11:42:13;;;;;;;4.75;3.00;;;21.20;95.90;;;;;;6153321;23;20322;-76
2022/09/19 11:45:00;;;;;;;4.75;2.95;;;21.30;95.30;;;;;;6155118;23;20492;-77
2022/09/19 11:47:50;;;;;;;4.40;2.78;;;21.30;94.50;;;;;;6154847;23;20001;-76
2022/09/19 11:50:59;;;;;;;4.40;2.60;;;21.20;93.30;;;;;;6154858;23;20002;-76
2022/09/19 11:53:35;;;;;;;2.13;1.80;;;21.40;93.10;;;;;;6106952;23;20009;-77
2022/09/19 11:56:13;;;;;;;6.18;2.67;;;21.60;92.00;;;;;;6152462;23;20021;-76
2022/09/19 11:59:02;;;;;;;3.92;2.38;;;21.70;89.90;;;;;;6153827;23;20459;-76
2022/09/19 12:01:41;;;;;;;3.92;2.58;;;21.70;90.30;;;;;;6154700;23;20004;-76
2022/09/19 12:04:10;;;;;;;3.17;2.15;;;21.70;90.80;;;;;;6153008;23;20013;-76
2022/09/19 12:07:04;;;;;;;5.13;2.95;;;21.70;87.80;;;;;;6154508;23;20342;-76
2022/09/19 12:09:39;;;;;;;4.57;2.90;;;21.80;83.40;;;;;;6153060;23;20005;-76
2022/09/19 12:12:13;;;;;;;6.70;2.83;;;21.70;86.80;;;;;;6154593;23;20009;-76
2022/09/19 12:14:44;;;;;;;3.70;2.40;;;21.80;87.50;;;;;;6154518;23;20073;-76
2022/09/19 12:17:28;;;;;;;3.17;2.00;;;21.80;89.30;;;;;;6152904;23;20013;-76
2022/09/19 12:20:13;;;;;;;3.08;2.20;;;21.90;83.20;;;;;;6154547;23;20161;-76
2022/09/19 12:22:48;;;;;;;2.22;1.52;;;21.90;81.50;;;;;;6152585;23;20005;-76
2022/09/19 12:25:19;;;;;;;2.47;1.67;;;22.00;83.50;;;;;;6152863;23;20009;-76
2022/09/19 12:27:54;;;;;;;3.55;2.53;;;22.00;85.80;;;;;;6154535;23;20005;-76
2022/09/19 12:30:23;;;;;;;4.30;2.28;;;22.20;80.80;;;;;;6153069;23;20005;-76
2022/09/19 12:33:14;;;;;;;3.42;2.35;;;22.10;82.40;;;;;;6154584;23;20460;-76
2022/09/19 12:35:48;;;;;;;4.23;2.50;;;22.20;81.20;;;;;;6154353;23;20001;-76
2022/09/19 12:38:59;;;;;;;3.63;1.80;;;22.20;82.20;;;;;;6154377;23;19998;-76
2022/09/19 12:41:52;;;;;;;2.45;1.90;;;22.30;81.80;;;;;;6151120;23;20032;-76
2022/09/19 12:44:36;;;;;;;2.20;1.95;;;22.40;83.60;;;;;;6152778;23;20315;-76
2022/09/19 12:47:11;;;;;;;2.63;1.50;;;22.50;74.00;;;;;;6154145;23;20076;-76
2022/09/19 12:49:47;;;;;;;2.35;1.40;;;22.60;77.40;;;;;;6152435;23;20096;-76
2022/09/19 12:52:25;;;;;;;2.47;1.23;;;22.60;72.10;;;;;;6154645;23;20083;-76
2022/09/19 12:55:25;;;;;;;2.45;1.55;;;22.70;71.30;;;;;;6153967;23;20032;-77
2022/09/19 12:57:56;;;;;;;1.60;1.50;;;22.80;69.60;;;;;;6154190;23;20013;-76
2022/09/19 13:00:22;;;;;;;3.28;1.92;;;22.80;64.50;;;;;;6154194;23;20431;-76
2022/09/19 13:02:56;;;;;;;1.77;1.23;;;22.70;62.70;;;;;;6152573;23;20030;-76
2022/09/19 13:05:28;;;;;;;3.40;1.65;;;22.70;61.60;;;;;;6154070;23;20089;-76
2022/09/19 13:08:04;;;;;;;4.57;1.50;;;22.70;60.30;;;;;;6154043;23;20014;-77
2022/09/19 13:10:41;;;;;;;4.30;1.70;;;22.80;65.90;;;;;;6154080;23;20012;-76
2022/09/19 13:13:13;;;;;;;3.28;1.90;;;22.90;64.90;;;;;;6152606;23;20088;-76
2022/09/19 13:15:55;;;;;;;3.47;2.03;;;22.90;65.10;;;;;;6153903;23;20010;-76
2022/09/19 13:23:59;;;;;;;3.22;1.80;;;23.00;67.90;;;;;;6154048;23;20044;-76
2022/09/19 13:26:35;;;;;;;3.72;2.38;;;23.10;64.10;;;;;;6153824;23;20005;-76
2022/09/19 13:29:09;;;;;;;3.72;2.70;;;23.20;67.50;;;;;;6154059;23;20453;-76
2022/09/19 13:31:53;;;;;;;3.95;2.28;;;23.20;69.40;;;;;;6152194;23;20044;-76
2022/09/19 13:34:59;;;;;;;3.33;2.15;;;23.30;68.40;;;;;;6152208;23;20257;-76
2022/09/19 13:37:32;;;;;;;4.13;2.53;;;23.40;68.30;;;;;;6153957;23;20012;-76